createdAt,value
2023-04-02T00:00:30.992Z,99.90
2023-04-02T00:03:05.968Z,99.90
2023-04-02T00:05:51.257Z,99.90
2023-04-02T00:08:39.015Z,99.90
2023-04-02T00:11:06.930Z,99.90
2023-04-02T00:13:43.638Z,99.90
2023-04-02T00:16:24.145Z,99.90
2023-04-02T00:18:58.339Z,99.90
2023-04-02T00:21:29.654Z,99.90
2023-04-02T00:23:59.803Z,99.90
2023-04-02T00:26:37.496Z,99.90
2023-04-02T00:29:06.270Z,99.90
2023-04-02T00:31:34.898Z,99.90
2023-04-02T00:34:04.794Z,99.90
2023-04-02T00:36:34.638Z,99.90
2023-04-02T00:39:04.968Z,99.90
2023-04-02T00:41:36.084Z,99.90
2023-04-02T00:44:03.629Z,99.90
2023-04-02T00:46:46.880Z,99.90
2023-04-02T00:49:36.150Z,99.90
2023-04-02T00:52:13.304Z,99.90
2023-04-02T00:54:51.016Z,99.90
2023-04-02T00:57:25.807Z,99.90
2023-04-02T01:00:08.757Z,99.90
2023-04-02T01:02:45.560Z,99.90
2023-04-02T01:05:34.312Z,99.90
2023-04-02T01:08:41.899Z,99.90
2023-04-02T01:11:47.604Z,99.90
2023-04-02T01:15:09.985Z,99.90
2023-04-02T01:18:21.628Z,99.90
2023-04-02T01:21:28.240Z,99.90
2023-04-02T01:24:11.164Z,99.90
2023-04-02T01:26:55.668Z,99.90
2023-04-02T01:29:30.668Z,99.90
2023-04-02T01:32:10.746Z,99.90
2023-04-02T01:34:39.210Z,99.90
2023-04-02T01:37:27.462Z,99.90
2023-04-02T01:40:29.173Z,99.90
2023-04-02T01:43:16.090Z,99.90
2023-04-02T01:45:43.092Z,99.90
2023-04-02T01:48:30.073Z,99.90
2023-04-02T01:50:59.997Z,99.90
2023-04-02T01:53:29.792Z,99.90
2023-04-02T01:56:02.207Z,99.90
2023-04-02T01:58:31.904Z,99.90
2023-04-02T02:01:18.371Z,99.90
2023-04-02T02:03:45.973Z,99.90
2023-04-02T02:06:16.535Z,99.90
2023-04-02T02:09:05.132Z,99.90
2023-04-02T02:11:33.803Z,99.90
2023-04-02T02:14:23.240Z,99.90
2023-04-02T02:16:53.518Z,99.90
2023-04-02T02:19:56.772Z,99.90
2023-04-02T02:22:33.580Z,99.90
2023-04-02T02:25:03.223Z,99.90
2023-04-02T02:27:55.797Z,99.90
2023-04-02T02:30:34.807Z,99.90
2023-04-02T02:33:33.257Z,99.90
2023-04-02T02:36:14.346Z,99.90
2023-04-02T02:38:49.448Z,99.90
2023-04-02T02:42:06.129Z,99.90
2023-04-02T02:44:39.717Z,99.90
2023-04-02T02:47:24.985Z,99.90
2023-04-02T02:49:57.392Z,99.90
2023-04-02T02:52:32.721Z,99.90
2023-04-02T02:55:07.547Z,99.90
2023-04-02T02:57:39.045Z,99.90
2023-04-02T03:00:09.745Z,99.90
2023-04-02T03:02:39.177Z,99.90
2023-04-02T03:05:07.648Z,99.90
2023-04-02T03:07:35.025Z,99.90
2023-04-02T03:10:23.025Z,99.90
2023-04-02T03:13:09.782Z,99.90
2023-04-02T03:16:12.947Z,99.90
2023-04-02T03:19:11.783Z,99.90
2023-04-02T03:22:03.270Z,99.90
2023-04-02T03:25:03.594Z,99.90
2023-04-02T03:27:39.627Z,99.90
2023-04-02T03:30:51.585Z,99.90
2023-04-02T03:33:55.909Z,99.90
2023-04-02T03:37:04.981Z,99.90
2023-04-02T03:39:55.381Z,99.90
2023-04-02T03:42:26.305Z,99.90
2023-04-02T03:45:30.788Z,99.90
2023-04-02T03:48:09.875Z,99.90
2023-04-02T03:50:59.157Z,99.90
2023-04-02T03:53:29.677Z,99.90
2023-04-02T03:55:58.621Z,99.90
2023-04-02T03:58:42.955Z,99.90
2023-04-02T04:01:34.633Z,99.90
2023-04-02T04:04:14.328Z,99.90
2023-04-02T04:06:50.032Z,99.90
2023-04-02T04:09:23.633Z,99.90
2023-04-02T04:11:53.864Z,99.90
2023-04-02T04:14:34.985Z,99.90
2023-04-02T04:17:24.949Z,99.90
2023-04-02T04:20:02.917Z,99.90
2023-04-02T04:22:30.554Z,99.90
2023-04-02T04:24:59.955Z,99.90
2023-04-02T04:27:48.740Z,99.90
2023-04-02T04:30:27.504Z,99.90
2023-04-02T04:32:58.872Z,99.90
2023-04-02T04:35:38.098Z,99.90
2023-04-02T04:38:14.769Z,99.90
2023-04-02T04:40:52.527Z,99.90
2023-04-02T04:43:42.213Z,99.90
2023-04-02T04:46:19.427Z,99.90
2023-04-02T04:49:14.725Z,99.90
2023-04-02T04:52:19.303Z,99.90
2023-04-02T04:54:47.592Z,99.90
2023-04-02T04:57:36.768Z,99.90
2023-04-02T05:00:28.304Z,99.90
2023-04-02T05:03:09.268Z,99.90
2023-04-02T05:05:39.460Z,99.90
2023-04-02T05:08:21.102Z,99.90
2023-04-02T05:10:55.725Z,99.90
2023-04-02T05:13:42.411Z,99.90
2023-04-02T05:16:36.901Z,99.90
2023-04-02T05:19:21.245Z,99.90
2023-04-02T05:21:57.937Z,99.90
2023-04-02T05:24:48.879Z,99.90
2023-04-02T05:27:41.832Z,99.90
2023-04-02T05:30:52.863Z,99.90
2023-04-02T05:33:34.189Z,99.90
2023-04-02T05:36:06.352Z,99.90
2023-04-02T05:38:36.703Z,99.90
2023-04-02T05:41:36.832Z,99.90
2023-04-02T05:44:14.457Z,99.90
2023-04-02T05:46:59.098Z,99.90
2023-04-02T05:49:49.616Z,99.90
2023-04-02T05:52:23.614Z,99.90
2023-04-02T05:55:33.732Z,99.90
2023-04-02T06:01:33.751Z,99.90
2023-04-02T06:04:26.855Z,99.90
2023-04-02T06:07:12.351Z,99.90
2023-04-02T06:10:07.909Z,99.80
2023-04-02T06:12:53.547Z,94.40
2023-04-02T06:15:23.115Z,93.40
2023-04-02T06:18:20.885Z,92.20
2023-04-02T06:20:47.955Z,90.20
2023-04-02T06:23:38.809Z,88.80
2023-04-02T06:27:01.297Z,88.30
2023-04-02T06:29:38.676Z,85.00
2023-04-02T06:32:10.047Z,82.90
2023-04-02T06:34:39.257Z,82.60
2023-04-02T06:37:40.274Z,80.10
2023-04-02T06:40:36.537Z,83.10
2023-04-02T06:43:14.142Z,85.90
2023-04-02T06:45:43.519Z,85.40
2023-04-02T06:48:19.719Z,81.50
2023-04-02T06:51:01.204Z,81.30
2023-04-02T06:53:33.503Z,80.00
2023-04-02T06:56:37.875Z,83.60
2023-04-02T06:59:08.016Z,84.60
2023-04-02T07:01:50.124Z,84.90
2023-04-02T07:04:21.471Z,76.50
2023-04-02T07:06:48.390Z,75.30
2023-04-02T07:09:15.392Z,76.70
2023-04-02T07:11:42.424Z,73.30
2023-04-02T07:14:13.093Z,74.20
2023-04-02T07:16:41.910Z,73.90
2023-04-02T07:19:20.732Z,74.80
2023-04-02T07:21:48.248Z,75.00
2023-04-02T07:24:15.116Z,70.80
2023-04-02T07:26:42.523Z,70.80
2023-04-02T07:29:15.173Z,69.20
2023-04-02T07:31:42.547Z,68.60
2023-04-02T07:34:13.689Z,70.00
2023-04-02T07:36:41.607Z,66.20
2023-04-02T07:39:08.693Z,59.40
2023-04-02T07:42:00.872Z,59.70
2023-04-02T07:44:28.860Z,58.50
2023-04-02T07:46:56.344Z,60.50
2023-04-02T07:49:23.265Z,58.80
2023-04-02T07:51:52.100Z,58.30
2023-04-02T07:54:18.984Z,57.70
2023-04-02T07:56:45.982Z,54.60
2023-04-02T07:59:13.063Z,55.10
2023-04-02T08:01:40.306Z,54.90
2023-04-02T08:04:15.146Z,56.40
2023-04-02T08:06:42.147Z,51.90
2023-04-02T08:09:10.245Z,52.10
2023-04-02T08:11:37.402Z,47.60
2023-04-02T08:14:04.345Z,46.20
2023-04-02T08:16:51.003Z,46.80
2023-04-02T08:19:18.814Z,49.10
2023-04-02T08:21:48.161Z,46.80
2023-04-02T08:24:15.128Z,45.20
2023-04-02T08:26:43.929Z,43.10
2023-04-02T08:29:12.038Z,44.40
2023-04-02T08:31:39.188Z,43.90
2023-04-02T08:34:06.140Z,40.40
2023-04-02T08:36:39.263Z,41.50
2023-04-02T08:39:11.044Z,42.10
2023-04-02T08:41:44.459Z,40.40
2023-04-02T08:44:36.722Z,36.30
2023-04-02T08:47:06.915Z,40.80
2023-04-02T08:50:01.768Z,40.70
2023-04-02T08:52:36.725Z,31.50
2023-04-02T08:55:11.235Z,31.50
2023-04-02T08:57:54.398Z,32.90
2023-04-02T09:00:39.899Z,32.20
2023-04-02T09:03:16.908Z,34.80
2023-04-02T09:05:46.170Z,35.90
2023-04-02T09:08:22.988Z,34.90
2023-04-02T09:11:06.209Z,34.10
2023-04-02T09:13:37.785Z,32.60
2023-04-02T09:16:12.593Z,30.00
2023-04-02T09:18:40.142Z,27.90
2023-04-02T09:21:42.602Z,27.60
2023-04-02T09:24:13.402Z,31.20
2023-04-02T09:26:40.595Z,29.10
2023-04-02T09:29:35.578Z,28.00
2023-04-02T09:32:11.254Z,24.50
2023-04-02T09:34:38.108Z,26.60
2023-04-02T09:37:25.412Z,27.30
2023-04-02T09:39:53.775Z,25.70
2023-04-02T09:42:36.448Z,28.60
2023-04-02T09:45:23.393Z,25.00
2023-04-02T09:47:52.510Z,26.30
2023-04-02T09:50:28.730Z,25.20
2023-04-02T09:52:56.290Z,23.50
2023-04-02T09:55:31.266Z,22.20
2023-04-02T09:58:27.594Z,24.70
2023-04-02T10:00:54.645Z,24.50
2023-04-02T10:03:33.169Z,17.80
2023-04-02T10:06:14.925Z,15.20
2023-04-02T10:08:44.153Z,18.80
2023-04-02T10:11:43.833Z,19.50
2023-04-02T10:14:24.209Z,17.00
2023-04-02T10:16:56.862Z,13.50
2023-04-02T10:20:09.745Z,12.90
2023-04-02T10:22:37.453Z,12.60
2023-04-02T10:25:17.756Z,14.30
2023-04-02T10:28:22.767Z,10.50
2023-04-02T10:31:13.261Z,10.10
2023-04-02T10:33:43.462Z,12.00
2023-04-02T10:36:48.352Z,8.10
2023-04-02T10:39:34.657Z,10.10
2023-04-02T10:42:27.543Z,11.30
2023-04-02T10:45:16.592Z,6.70
2023-04-02T10:48:01.125Z,6.70
2023-04-02T10:50:57.443Z,8.40
2023-04-02T10:53:46.089Z,6.80
2023-04-02T10:56:14.624Z,5.10
2023-04-02T10:58:57.717Z,4.80
2023-04-02T11:01:30.738Z,2.50
2023-04-02T11:04:06.032Z,5.20
2023-04-02T11:06:45.602Z,1.60
2023-04-02T11:09:31.872Z,5.70
2023-04-02T11:12:01.149Z,2.30
2023-04-02T11:14:31.478Z,1.00
2023-04-02T11:17:00.920Z,1.00
2023-04-02T11:19:32.705Z,1.80
2023-04-02T11:22:33.410Z,1.00
2023-04-02T11:25:01.105Z,2.70
2023-04-02T11:27:34.377Z,1.00
2023-04-02T11:30:27.351Z,1.00
2023-04-02T11:32:56.538Z,1.00
2023-04-02T11:35:39.102Z,1.00
2023-04-02T11:38:52.402Z,1.00
2023-04-02T11:41:57.852Z,1.00
2023-04-02T11:44:25.562Z,1.00
2023-04-02T11:46:52.661Z,1.00
2023-04-02T11:49:40.400Z,1.00
2023-04-02T11:52:29.748Z,1.00
2023-04-02T11:55:24.545Z,1.00
2023-04-02T11:58:39.592Z,1.00
2023-04-02T12:01:45.551Z,1.00
2023-04-02T12:04:56.973Z,1.00
2023-04-02T12:07:37.727Z,1.00
2023-04-02T12:10:24.507Z,1.00
2023-04-02T12:12:52.031Z,1.00
2023-04-02T12:15:47.197Z,1.00
2023-04-02T12:18:22.227Z,1.00
2023-04-02T12:20:52.934Z,1.00
2023-04-02T12:23:29.291Z,1.00
2023-04-02T12:26:07.506Z,1.00
2023-04-02T12:28:38.155Z,1.00
2023-04-02T12:31:14.151Z,1.00
2023-04-02T12:33:42.745Z,1.00
2023-04-02T12:36:34.606Z,1.00
2023-04-02T12:39:01.607Z,1.00
2023-04-02T12:41:33.496Z,1.00
2023-04-02T12:44:03.402Z,1.00
2023-04-02T12:46:32.220Z,1.00
2023-04-02T12:49:27.531Z,1.00
2023-04-02T12:51:55.092Z,1.00
2023-04-02T12:54:23.384Z,1.00
2023-04-02T12:56:51.132Z,1.00
2023-04-02T12:59:36.271Z,1.00
2023-04-02T13:02:17.890Z,1.00
2023-04-02T13:04:53.607Z,1.00
2023-04-02T13:07:23.658Z,1.00
2023-04-02T13:09:55.997Z,1.00
2023-04-02T13:12:26.987Z,1.00
2023-04-02T13:14:59.551Z,1.00
2023-04-02T13:17:48.987Z,1.00
2023-04-02T13:20:39.740Z,1.00
2023-04-02T13:23:33.630Z,1.00
2023-04-02T13:26:09.716Z,1.00
2023-04-02T13:28:36.719Z,1.00
2023-04-02T13:31:03.874Z,1.00
2023-04-02T13:33:31.106Z,1.00
2023-04-02T13:35:58.062Z,1.00
2023-04-02T13:38:24.976Z,1.00
2023-04-02T13:40:52.014Z,1.00
2023-04-02T13:43:20.745Z,1.00
2023-04-02T13:45:53.181Z,1.00
2023-04-02T13:48:20.160Z,1.00
2023-04-02T13:50:47.244Z,1.00
2023-04-02T13:53:24.530Z,1.00
2023-04-02T13:55:52.754Z,1.00
2023-04-02T13:58:19.761Z,1.00
2023-04-02T14:00:47.896Z,1.00
2023-04-02T14:03:21.903Z,1.00
2023-04-02T14:06:16.840Z,1.00
2023-04-02T14:09:22.053Z,1.00
2023-04-02T14:12:16.425Z,1.00
2023-04-02T14:46:02.438Z,1.00
2023-04-02T14:49:00.517Z,1.00
2023-04-02T14:51:33.412Z,1.00
2023-04-02T14:54:45.444Z,1.00
2023-04-02T14:57:26.597Z,1.00
2023-04-02T15:00:33.154Z,1.00
2023-04-02T15:03:12.542Z,1.00
2023-04-02T15:05:46.542Z,1.00
2023-04-02T15:08:22.626Z,1.00
2023-04-02T15:11:30.176Z,1.00
2023-04-02T15:14:06.395Z,1.00
2023-04-02T15:16:36.418Z,1.00
2023-04-02T15:19:10.354Z,1.00
2023-04-02T15:22:17.709Z,1.00
2023-04-02T15:25:13.428Z,1.00
2023-04-02T15:28:23.049Z,1.00
2023-04-02T15:30:57.139Z,1.00
2023-04-02T15:33:43.521Z,1.00
2023-04-02T15:36:32.797Z,1.00
2023-04-02T15:39:37.851Z,1.00
2023-04-02T15:42:16.414Z,1.00
2023-04-02T15:44:55.220Z,1.00
2023-04-02T15:48:02.253Z,1.00
2023-04-02T15:51:15.649Z,1.00
2023-04-02T15:54:03.583Z,1.00
2023-04-02T15:57:07.845Z,1.00
2023-04-02T16:00:13.629Z,1.00
2023-04-02T16:03:26.934Z,1.00
2023-04-02T16:06:44.100Z,1.00
2023-04-02T16:12:18.251Z,1.00
2023-04-02T16:14:49.810Z,1.00
2023-04-02T16:17:26.869Z,1.00
2023-04-02T16:20:32.505Z,1.00
2023-04-02T16:23:28.457Z,1.00
2023-04-02T16:26:57.362Z,1.00
2023-04-02T16:29:55.940Z,1.00
2023-04-02T16:33:01.632Z,1.00
2023-04-02T16:36:12.066Z,1.00
2023-04-02T16:39:16.973Z,1.00
2023-04-02T16:42:30.589Z,1.00
2023-04-02T16:51:34.207Z,1.00
2023-04-02T16:54:11.118Z,1.00
2023-04-02T17:20:01.662Z,1.00
2023-04-02T17:22:32.024Z,1.00
2023-04-02T17:25:02.714Z,1.00
2023-04-02T17:27:39.522Z,1.00
2023-04-02T17:30:54.425Z,1.00
2023-04-02T17:33:22.633Z,1.00
2023-04-02T17:36:18.517Z,1.00
2023-04-02T17:39:19.159Z,1.00
2023-04-02T17:42:27.459Z,1.00
2023-04-02T17:45:20.141Z,1.00
2023-04-02T17:48:04.173Z,1.00
2023-04-02T17:51:09.571Z,1.00
2023-04-02T17:54:10.007Z,1.00
2023-04-02T17:57:27.571Z,1.00
2023-04-02T18:16:51.504Z,1.00
2023-04-02T18:19:34.060Z,1.00
2023-04-02T18:22:26.769Z,1.00
2023-04-02T18:25:24.875Z,1.00
2023-04-02T18:28:23.775Z,1.00
2023-04-02T18:31:01.405Z,1.00
2023-04-02T18:33:55.209Z,1.00
2023-04-02T18:37:03.747Z,1.00
2023-04-02T18:40:14.294Z,1.00
2023-04-02T18:43:31.010Z,1.00
2023-04-02T18:52:18.492Z,1.00
2023-04-02T18:54:52.075Z,1.00
2023-04-02T18:57:29.540Z,1.00
2023-04-02T19:00:16.450Z,1.00
2023-04-02T19:08:55.933Z,1.00
2023-04-02T19:14:18.079Z,1.00
2023-04-02T19:17:14.893Z,1.00
2023-04-02T19:19:55.400Z,1.00
2023-04-02T19:22:36.202Z,1.00
2023-04-02T19:25:49.873Z,1.50
2023-04-02T19:28:57.571Z,1.90
2023-04-02T19:32:00.533Z,1.50
2023-04-02T19:35:18.249Z,1.50
2023-04-02T19:38:17.241Z,1.00
2023-04-02T19:41:01.136Z,1.20
2023-04-02T19:43:28.902Z,3.40
2023-04-02T19:45:57.207Z,4.50
2023-04-02T19:48:32.513Z,4.20
2023-04-02T19:50:59.584Z,3.80
2023-04-02T19:53:28.082Z,3.50
2023-04-02T19:55:57.621Z,3.00
2023-04-02T19:58:35.559Z,3.60
2023-04-02T20:01:03.054Z,4.00
2023-04-02T20:03:33.218Z,4.70
2023-04-02T20:06:00.330Z,6.50
2023-04-02T20:08:28.207Z,8.30
2023-04-02T20:10:56.187Z,12.60
2023-04-02T20:13:23.307Z,15.10
2023-04-02T20:15:51.455Z,15.10
2023-04-02T20:18:18.972Z,16.30
2023-04-02T20:20:46.829Z,17.80
2023-04-02T20:23:15.836Z,17.00
2023-04-02T20:25:55.145Z,16.90
2023-04-02T20:28:26.665Z,17.80
2023-04-02T20:30:54.653Z,17.90
2023-04-02T20:33:24.104Z,18.00
2023-04-02T20:35:52.510Z,18.30
2023-04-02T20:38:19.807Z,18.20
2023-04-02T20:40:53.149Z,18.00
2023-04-02T20:43:20.230Z,18.10
2023-04-02T20:50:07.392Z,20.30
2023-04-02T20:52:34.401Z,23.00
2023-04-02T20:55:01.881Z,22.30
2023-04-02T20:57:32.763Z,21.60
2023-04-02T21:00:03.111Z,19.50
2023-04-02T21:02:30.098Z,17.80
2023-04-02T21:04:57.175Z,17.50
2023-04-02T21:07:24.142Z,17.20
2023-04-02T21:09:51.979Z,17.20
2023-04-02T21:12:19.412Z,17.50
2023-04-02T21:14:46.620Z,17.30
2023-04-02T21:17:13.602Z,16.80
2023-04-02T21:19:40.614Z,16.40
2023-04-02T21:22:08.129Z,15.30
2023-04-02T21:24:36.157Z,15.30
2023-04-02T21:27:03.075Z,15.30
2023-04-02T21:29:30.136Z,12.80
2023-04-02T21:31:58.550Z,10.20
2023-04-02T21:34:29.884Z,3.50
2023-04-02T21:36:57.122Z,3.40
2023-04-02T21:39:24.580Z,3.60
2023-04-02T21:41:53.276Z,5.10
2023-04-02T21:44:22.788Z,4.10
2023-04-02T21:46:52.141Z,1.30
2023-04-02T21:49:26.346Z,1.00
2023-04-02T21:51:53.543Z,1.00
2023-04-02T21:54:20.667Z,1.00
2023-04-02T21:56:48.014Z,1.00
2023-04-02T21:59:16.753Z,1.00
2023-04-02T22:01:50.370Z,1.00
2023-04-02T22:04:23.632Z,2.70
2023-04-02T22:06:52.292Z,3.20
2023-04-02T22:09:24.456Z,3.50
2023-04-02T22:11:59.195Z,3.10
2023-04-02T22:14:27.606Z,3.40
2023-04-02T22:16:55.086Z,2.30
2023-04-02T22:19:22.416Z,3.10
2023-04-02T22:21:49.421Z,3.10
2023-04-02T22:24:25.174Z,3.30
2023-04-02T22:26:53.904Z,3.20
2023-04-02T22:29:21.074Z,2.40
2023-04-02T22:31:48.265Z,1.00
2023-04-02T22:34:15.228Z,1.00
2023-04-02T22:36:42.178Z,1.00
2023-04-02T22:39:12.203Z,1.00
2023-04-02T22:41:39.539Z,1.00
2023-04-02T22:44:06.963Z,1.00
2023-04-02T22:46:34.866Z,1.00
2023-04-02T22:49:22.194Z,1.00
2023-04-02T22:51:49.188Z,1.00
2023-04-02T22:54:16.256Z,1.50
2023-04-02T22:56:43.263Z,2.80
2023-04-02T22:59:10.209Z,4.60
2023-04-02T23:01:37.525Z,5.30
2023-04-02T23:04:05.514Z,4.80
2023-04-02T23:06:32.580Z,4.80
2023-04-02T23:08:59.507Z,4.40
2023-04-02T23:11:27.897Z,4.50
2023-04-02T23:13:57.597Z,4.80
2023-04-02T23:16:27.244Z,4.20
2023-04-02T23:18:55.684Z,4.60
2023-04-02T23:21:23.396Z,4.70
2023-04-02T23:23:51.527Z,5.90
2023-04-02T23:26:21.912Z,5.90
2023-04-02T23:28:51.870Z,5.90
2023-04-02T23:31:22.107Z,5.90
2023-04-02T23:33:49.931Z,4.30
2023-04-02T23:36:31.621Z,4.60
2023-04-02T23:39:04.205Z,3.50
2023-04-02T23:41:31.642Z,3.40
2023-04-02T23:43:58.945Z,3.10
2023-04-02T23:46:26.469Z,2.60
2023-04-02T23:48:54.254Z,2.00
2023-04-02T23:51:21.556Z,1.90
2023-04-02T23:53:49.538Z,3.50
2023-04-02T23:56:17.568Z,3.10
2023-04-02T23:58:44.688Z,3.70
